createdAt,value
2022-12-31T00:00:08.980Z,5.39
2022-12-31T00:00:25.189Z,5.39
2022-12-31T00:00:58.858Z,5.40
2022-12-31T00:01:15.350Z,5.38
2022-12-31T00:01:28.523Z,5.40
2022-12-31T00:01:41.148Z,5.38
2022-12-31T00:01:53.782Z,5.39
2022-12-31T00:02:07.533Z,5.38
2022-12-31T00:02:20.321Z,5.39
2022-12-31T00:02:33.056Z,5.42
2022-12-31T00:02:45.987Z,5.41
2022-12-31T00:02:58.917Z,5.43
2022-12-31T00:03:11.791Z,5.40
2022-12-31T00:03:24.821Z,5.42
2022-12-31T00:03:39.164Z,5.41
2022-12-31T00:03:52.267Z,5.43
2022-12-31T00:04:05.266Z,5.41
2022-12-31T00:04:18.348Z,5.41
2022-12-31T00:04:30.942Z,5.42
2022-12-31T00:04:44.626Z,5.41
2022-12-31T00:04:57.221Z,5.45
2022-12-31T00:05:10.728Z,5.43
2022-12-31T00:05:24.147Z,5.43
2022-12-31T00:05:37.450Z,5.43
2022-12-31T00:05:50.113Z,5.44
2022-12-31T00:06:13.011Z,5.43
2022-12-31T00:06:28.029Z,5.41
2022-12-31T00:06:40.643Z,5.40
2022-12-31T00:06:53.275Z,5.42
2022-12-31T00:07:05.866Z,5.42
2022-12-31T00:07:19.458Z,5.41
2022-12-31T00:07:46.180Z,5.41
2022-12-31T00:07:59.007Z,5.41
2022-12-31T00:08:11.617Z,5.40
2022-12-31T00:08:24.311Z,5.39
2022-12-31T00:08:36.944Z,5.39
2022-12-31T00:08:51.511Z,5.38
2022-12-31T00:09:06.210Z,5.40
2022-12-31T00:09:18.833Z,5.39
2022-12-31T00:09:31.424Z,5.41
2022-12-31T00:09:44.005Z,5.40
2022-12-31T00:09:56.615Z,5.39
2022-12-31T00:10:10.831Z,5.41
2022-12-31T00:10:23.590Z,5.40
2022-12-31T00:10:41.498Z,5.41
2022-12-31T00:10:54.338Z,5.40
2022-12-31T00:11:06.941Z,5.40
2022-12-31T00:11:20.559Z,5.41
2022-12-31T00:11:35.602Z,5.41
2022-12-31T00:11:49.632Z,5.39
2022-12-31T00:12:02.193Z,5.41
2022-12-31T00:12:14.794Z,5.39
2022-12-31T00:12:27.347Z,5.41
2022-12-31T00:12:40.141Z,5.39
2022-12-31T00:12:52.764Z,5.41
2022-12-31T00:13:06.360Z,5.41
2022-12-31T00:13:18.926Z,5.41
2022-12-31T00:13:31.849Z,5.39
2022-12-31T00:13:46.575Z,5.41
2022-12-31T00:13:59.678Z,5.41
2022-12-31T00:14:12.422Z,5.41
2022-12-31T00:14:25.029Z,5.44
2022-12-31T00:14:38.644Z,5.43
2022-12-31T00:14:51.236Z,5.42
2022-12-31T00:15:04.106Z,5.44
2022-12-31T00:15:16.937Z,5.42
2022-12-31T00:15:29.489Z,5.41
2022-12-31T00:15:43.590Z,5.42
2022-12-31T00:15:57.175Z,5.43
2022-12-31T00:16:12.418Z,5.43
2022-12-31T00:16:27.296Z,5.42
2022-12-31T00:16:41.901Z,5.43
2022-12-31T00:16:54.560Z,5.42
2022-12-31T00:17:07.188Z,5.43
2022-12-31T00:17:20.770Z,5.43
2022-12-31T00:17:33.510Z,5.42
2022-12-31T00:17:46.394Z,5.44
2022-12-31T00:17:58.962Z,5.43
2022-12-31T00:18:11.945Z,5.44
2022-12-31T00:18:24.580Z,5.44
2022-12-31T00:18:38.018Z,5.43
2022-12-31T00:18:52.530Z,5.43
2022-12-31T00:19:07.845Z,5.44
2022-12-31T00:19:20.436Z,5.43
2022-12-31T00:19:32.995Z,5.43
2022-12-31T00:19:45.575Z,5.41
2022-12-31T00:19:58.168Z,5.43
2022-12-31T00:20:11.471Z,5.45
2022-12-31T00:20:24.075Z,5.44
2022-12-31T00:20:40.182Z,5.44
2022-12-31T00:20:52.767Z,5.45
2022-12-31T00:21:06.867Z,5.44
2022-12-31T00:21:20.052Z,5.43
2022-12-31T00:21:34.518Z,5.45
2022-12-31T00:21:47.122Z,5.44
2022-12-31T00:21:59.958Z,5.45
2022-12-31T00:22:13.521Z,5.48
2022-12-31T00:22:26.100Z,5.46
2022-12-31T00:22:38.710Z,5.50
2022-12-31T00:22:51.326Z,5.50
2022-12-31T00:23:03.953Z,5.50
2022-12-31T00:23:16.538Z,5.47
2022-12-31T00:23:29.125Z,5.49
2022-12-31T00:23:42.182Z,5.50
2022-12-31T00:23:55.878Z,5.47
2022-12-31T00:24:08.887Z,5.48
2022-12-31T00:24:21.466Z,5.48
2022-12-31T00:24:35.846Z,5.49
2022-12-31T00:24:48.483Z,5.49
2022-12-31T00:25:01.048Z,5.50
2022-12-31T00:25:13.704Z,5.49
2022-12-31T00:25:27.562Z,5.52
2022-12-31T00:25:40.145Z,5.51
2022-12-31T00:25:52.699Z,5.52
2022-12-31T00:26:07.260Z,5.52
2022-12-31T00:26:21.980Z,5.51
2022-12-31T00:26:36.541Z,5.52
2022-12-31T00:26:50.734Z,5.50
2022-12-31T00:27:03.487Z,5.50
2022-12-31T00:27:16.317Z,5.49
2022-12-31T00:27:30.479Z,5.52
2022-12-31T00:27:43.042Z,5.51
2022-12-31T00:27:56.828Z,5.53
2022-12-31T00:28:09.381Z,5.51
2022-12-31T00:28:22.052Z,5.53
2022-12-31T00:28:35.732Z,5.53
2022-12-31T00:28:49.152Z,5.54
2022-12-31T00:29:02.297Z,5.54
2022-12-31T00:29:15.967Z,5.54
2022-12-31T00:29:28.587Z,5.50
2022-12-31T00:29:41.150Z,5.54
2022-12-31T00:29:53.728Z,5.54
2022-12-31T00:30:07.505Z,5.53
2022-12-31T00:30:20.076Z,5.56
2022-12-31T00:30:33.885Z,5.58
2022-12-31T00:30:47.479Z,5.62
2022-12-31T00:31:05.921Z,5.60
2022-12-31T00:31:20.722Z,5.56
2022-12-31T00:31:35.770Z,5.59
2022-12-31T00:31:49.431Z,5.58
2022-12-31T00:32:02.030Z,5.58
2022-12-31T00:32:14.596Z,5.58
2022-12-31T00:32:28.351Z,5.57
2022-12-31T00:32:41.159Z,5.57
2022-12-31T00:32:53.766Z,5.57
2022-12-31T00:33:06.350Z,5.57
2022-12-31T00:33:19.894Z,5.58
2022-12-31T00:33:32.528Z,5.58
2022-12-31T00:33:45.268Z,5.56
2022-12-31T00:33:58.683Z,5.57
2022-12-31T00:34:11.212Z,5.57
2022-12-31T00:34:23.903Z,5.54
2022-12-31T00:34:36.441Z,5.54
2022-12-31T00:34:50.050Z,5.56
2022-12-31T00:35:02.632Z,5.56
2022-12-31T00:35:15.230Z,5.57
2022-12-31T00:35:27.796Z,5.54
2022-12-31T00:35:40.650Z,5.55
2022-12-31T00:35:53.190Z,5.55
2022-12-31T00:36:08.204Z,5.55
2022-12-31T00:36:24.399Z,5.56
2022-12-31T00:36:39.099Z,5.55
2022-12-31T00:36:52.965Z,5.57
2022-12-31T00:37:05.555Z,5.55
2022-12-31T00:37:18.170Z,5.56
2022-12-31T00:37:30.761Z,5.54
2022-12-31T00:37:43.345Z,5.57
2022-12-31T00:37:56.908Z,5.57
2022-12-31T00:38:09.561Z,5.55
2022-12-31T00:38:22.184Z,5.54
2022-12-31T00:38:35.353Z,5.56
2022-12-31T00:38:49.908Z,5.58
2022-12-31T00:39:05.045Z,5.57
2022-12-31T00:39:18.603Z,5.57
2022-12-31T00:39:31.213Z,5.57
2022-12-31T00:39:43.823Z,5.57
2022-12-31T00:39:56.745Z,5.57
2022-12-31T00:40:10.996Z,5.57
2022-12-31T00:40:23.567Z,5.59
2022-12-31T00:40:36.203Z,5.60
2022-12-31T00:40:49.816Z,5.60
2022-12-31T00:41:02.454Z,5.59
2022-12-31T00:41:17.033Z,5.58
2022-12-31T00:41:29.709Z,5.57
2022-12-31T00:41:44.084Z,5.59
2022-12-31T00:41:59.129Z,5.61
2022-12-31T00:42:11.721Z,5.58
2022-12-31T00:42:24.463Z,5.59
2022-12-31T00:42:37.057Z,5.60
2022-12-31T00:42:49.654Z,5.60
2022-12-31T00:43:03.246Z,5.59
2022-12-31T00:43:15.849Z,5.61
2022-12-31T00:43:28.431Z,5.59
2022-12-31T00:43:41.331Z,5.60
2022-12-31T00:43:54.923Z,5.59
2022-12-31T00:44:07.535Z,5.59
2022-12-31T00:44:21.602Z,5.61
2022-12-31T00:44:34.229Z,5.62
2022-12-31T00:44:46.845Z,5.61
2022-12-31T00:44:59.470Z,5.60
2022-12-31T00:45:12.140Z,5.60
2022-12-31T00:45:24.728Z,5.59
2022-12-31T00:45:37.328Z,5.59
2022-12-31T00:45:49.995Z,5.60
2022-12-31T00:46:05.067Z,5.59
2022-12-31T00:46:19.322Z,5.62
2022-12-31T00:46:32.033Z,5.63
2022-12-31T00:46:56.873Z,5.63
2022-12-31T00:47:09.480Z,5.64
2022-12-31T00:47:24.573Z,5.63
2022-12-31T00:47:37.172Z,5.62
2022-12-31T00:47:49.755Z,5.63
2022-12-31T00:48:02.337Z,5.64
2022-12-31T00:48:14.927Z,5.64
2022-12-31T00:48:28.118Z,5.64
2022-12-31T00:48:42.328Z,5.63
2022-12-31T00:48:55.195Z,5.62
2022-12-31T00:49:09.742Z,5.64
2022-12-31T00:49:22.304Z,5.63
2022-12-31T00:49:34.923Z,5.64
2022-12-31T00:49:47.556Z,5.61
2022-12-31T00:50:01.362Z,5.64
2022-12-31T00:50:13.994Z,5.63
2022-12-31T00:50:26.563Z,5.64
2022-12-31T00:50:39.178Z,5.62
2022-12-31T00:50:52.260Z,5.61
2022-12-31T00:51:07.490Z,5.63
2022-12-31T00:51:27.424Z,5.63
2022-12-31T00:51:40.619Z,5.61
2022-12-31T00:51:53.211Z,5.63
2022-12-31T00:52:06.012Z,5.62
2022-12-31T00:52:18.620Z,5.62
2022-12-31T00:52:31.229Z,5.62
2022-12-31T00:52:43.797Z,5.63
2022-12-31T00:52:56.377Z,5.64
2022-12-31T00:53:09.987Z,5.64
2022-12-31T00:53:23.739Z,5.64
2022-12-31T00:53:37.101Z,5.66
2022-12-31T00:53:50.066Z,5.67
2022-12-31T00:54:02.714Z,5.65
2022-12-31T00:54:15.410Z,5.66
2022-12-31T00:54:28.008Z,5.67
2022-12-31T00:54:41.676Z,5.68
2022-12-31T00:54:54.319Z,5.67
2022-12-31T00:55:08.200Z,5.67
2022-12-31T00:55:20.829Z,5.68
2022-12-31T00:55:33.464Z,5.70
2022-12-31T00:55:46.052Z,5.71
2022-12-31T00:56:02.395Z,5.70
2022-12-31T00:56:17.845Z,5.70
2022-12-31T00:56:31.408Z,5.68
2022-12-31T00:56:43.976Z,5.69
2022-12-31T00:56:57.955Z,5.72
2022-12-31T00:57:10.562Z,5.71
2022-12-31T00:57:23.152Z,5.71
2022-12-31T00:57:36.724Z,5.72
2022-12-31T00:57:49.616Z,5.71
2022-12-31T00:58:02.283Z,5.74
2022-12-31T00:58:15.252Z,5.73
2022-12-31T00:58:27.927Z,5.73
2022-12-31T00:58:41.545Z,5.73
2022-12-31T00:58:54.488Z,5.71
2022-12-31T00:59:08.191Z,5.74
2022-12-31T00:59:20.909Z,5.74
2022-12-31T00:59:33.503Z,5.74
2022-12-31T00:59:46.085Z,5.76
2022-12-31T00:59:58.698Z,5.76
2022-12-31T01:00:12.603Z,5.76
2022-12-31T01:00:26.182Z,5.75
2022-12-31T01:00:39.430Z,5.76
2022-12-31T01:00:52.037Z,5.74
2022-12-31T01:01:09.700Z,5.76
2022-12-31T01:01:24.397Z,5.76
2022-12-31T01:01:40.460Z,5.75
2022-12-31T01:01:53.253Z,5.77
2022-12-31T01:02:06.005Z,5.77
2022-12-31T01:02:19.068Z,5.78
2022-12-31T01:02:31.850Z,5.79
2022-12-31T01:02:44.741Z,5.81
2022-12-31T01:02:58.401Z,5.82
2022-12-31T01:03:11.170Z,5.84
2022-12-31T01:03:24.319Z,5.81
2022-12-31T01:03:36.948Z,5.84
2022-12-31T01:03:51.810Z,5.80
2022-12-31T01:04:06.638Z,5.85
2022-12-31T01:04:22.085Z,5.86
2022-12-31T01:04:34.757Z,5.83
2022-12-31T01:04:47.465Z,5.84
2022-12-31T01:05:00.099Z,5.85
2022-12-31T01:05:12.769Z,5.83
2022-12-31T01:05:26.726Z,5.84
2022-12-31T01:05:39.327Z,5.85
2022-12-31T01:05:52.129Z,5.82
2022-12-31T01:06:05.911Z,5.84
2022-12-31T01:06:18.992Z,5.82
2022-12-31T01:06:31.707Z,5.84
2022-12-31T01:06:44.875Z,5.84
2022-12-31T01:06:58.720Z,5.83
2022-12-31T01:07:11.354Z,5.84
2022-12-31T01:07:24.038Z,5.82
2022-12-31T01:07:37.781Z,5.84
2022-12-31T01:07:50.396Z,5.83
2022-12-31T01:08:03.596Z,5.85
2022-12-31T01:08:17.465Z,5.83
2022-12-31T01:08:30.057Z,5.86
2022-12-31T01:08:42.988Z,5.83
2022-12-31T01:08:55.815Z,5.84
2022-12-31T01:09:09.607Z,5.82
2022-12-31T01:09:22.406Z,5.82
2022-12-31T01:09:35.020Z,5.83
2022-12-31T01:09:47.623Z,5.83
2022-12-31T01:10:01.249Z,5.85
2022-12-31T01:10:34.388Z,5.84
2022-12-31T01:11:08.065Z,5.84
2022-12-31T01:11:22.615Z,5.84
2022-12-31T01:11:36.022Z,5.82
2022-12-31T01:11:51.051Z,5.84
2022-12-31T01:12:06.698Z,5.81
2022-12-31T01:12:19.504Z,5.84
2022-12-31T01:12:32.068Z,5.85
2022-12-31T01:12:44.650Z,5.85
2022-12-31T01:12:57.191Z,5.82
2022-12-31T01:13:10.191Z,5.81
2022-12-31T01:13:22.758Z,5.85
2022-12-31T01:13:36.351Z,5.84
2022-12-31T01:13:52.799Z,5.82
2022-12-31T01:14:08.808Z,5.82
2022-12-31T01:14:21.398Z,5.82
2022-12-31T01:14:34.041Z,5.82
2022-12-31T01:14:46.647Z,5.82
2022-12-31T01:15:00.197Z,5.81
2022-12-31T01:15:12.733Z,5.81
2022-12-31T01:15:25.436Z,5.79
2022-12-31T01:15:39.169Z,5.80
2022-12-31T01:15:52.230Z,5.80
2022-12-31T01:16:08.785Z,5.80
2022-12-31T01:16:22.966Z,5.84
2022-12-31T01:16:39.358Z,5.81
2022-12-31T01:16:54.199Z,5.83
2022-12-31T01:17:06.815Z,5.82
2022-12-31T01:17:19.457Z,5.81
2022-12-31T01:17:32.073Z,5.81
2022-12-31T01:17:44.637Z,5.82
2022-12-31T01:17:57.203Z,5.82
2022-12-31T01:18:09.979Z,5.82
2022-12-31T01:18:23.544Z,5.82
2022-12-31T01:18:36.220Z,5.80
2022-12-31T01:18:49.519Z,5.82
2022-12-31T01:19:05.647Z,5.81
2022-12-31T01:19:20.047Z,5.80
2022-12-31T01:19:33.637Z,5.83
2022-12-31T01:19:46.275Z,5.81
2022-12-31T01:19:59.167Z,5.82
2022-12-31T01:20:11.943Z,5.82
2022-12-31T01:20:24.546Z,5.84
2022-12-31T01:20:38.206Z,5.82
2022-12-31T01:20:50.809Z,5.83
2022-12-31T01:21:04.776Z,5.86
2022-12-31T01:21:19.046Z,5.84
2022-12-31T01:21:32.258Z,5.85
2022-12-31T01:21:45.901Z,5.84
2022-12-31T01:21:58.551Z,5.85
2022-12-31T01:22:11.179Z,5.85
2022-12-31T01:22:23.774Z,5.85
2022-12-31T01:22:36.400Z,5.85
2022-12-31T01:22:49.977Z,5.84
2022-12-31T01:23:02.595Z,5.86
2022-12-31T01:23:15.239Z,5.85
2022-12-31T01:23:27.839Z,5.83
2022-12-31T01:23:40.875Z,5.84
2022-12-31T01:23:53.529Z,5.85
2022-12-31T01:24:07.197Z,5.82
2022-12-31T01:24:21.292Z,5.82
2022-12-31T01:24:34.251Z,5.86
2022-12-31T01:24:46.853Z,5.87
2022-12-31T01:24:59.468Z,5.88
2022-12-31T01:25:12.202Z,5.88
2022-12-31T01:25:24.796Z,5.90
2022-12-31T01:25:39.261Z,5.90
2022-12-31T01:25:51.823Z,5.91
2022-12-31T01:26:06.397Z,5.87
2022-12-31T01:26:20.956Z,5.89
2022-12-31T01:26:33.552Z,5.92
2022-12-31T01:26:46.762Z,5.91
2022-12-31T01:26:59.349Z,5.91
2022-12-31T01:27:13.344Z,5.91
2022-12-31T01:27:25.966Z,5.90
2022-12-31T01:27:38.557Z,5.91
2022-12-31T01:27:52.151Z,5.90
2022-12-31T01:28:06.078Z,5.90
2022-12-31T01:28:18.702Z,5.93
2022-12-31T01:28:31.960Z,5.93
2022-12-31T01:28:44.665Z,5.93
2022-12-31T01:28:58.360Z,5.92
2022-12-31T01:29:11.767Z,5.95
2022-12-31T01:29:24.778Z,5.95
2022-12-31T01:29:37.397Z,5.95
2022-12-31T01:29:50.019Z,5.97
2022-12-31T01:30:03.633Z,5.98
2022-12-31T01:30:16.312Z,5.98
2022-12-31T01:30:28.920Z,5.96
2022-12-31T01:30:41.606Z,5.97
2022-12-31T01:30:54.391Z,5.93
2022-12-31T01:31:08.734Z,5.97
2022-12-31T01:31:24.259Z,5.94
2022-12-31T01:31:37.665Z,5.97
2022-12-31T01:31:50.377Z,6.02
2022-12-31T01:32:02.971Z,6.02
2022-12-31T01:32:15.620Z,6.00
2022-12-31T01:32:28.226Z,6.00
2022-12-31T01:32:40.847Z,6.00
2022-12-31T01:32:53.440Z,6.00
2022-12-31T01:33:06.146Z,5.99
2022-12-31T01:33:20.228Z,6.00
2022-12-31T01:33:33.521Z,5.99
2022-12-31T01:33:46.834Z,5.99
2022-12-31T01:33:59.466Z,6.00
2022-12-31T01:34:12.080Z,5.99
2022-12-31T01:34:24.681Z,5.99
2022-12-31T01:34:38.260Z,5.97
2022-12-31T01:34:50.855Z,5.97
2022-12-31T01:35:03.616Z,5.99
2022-12-31T01:35:16.263Z,5.98
2022-12-31T01:35:28.862Z,5.98
2022-12-31T01:35:41.459Z,5.99
2022-12-31T01:35:54.092Z,5.98
2022-12-31T01:36:11.036Z,5.98
2022-12-31T01:36:26.094Z,5.99
2022-12-31T01:36:40.044Z,5.99
2022-12-31T01:36:52.672Z,5.99
2022-12-31T01:37:05.271Z,5.99
2022-12-31T01:37:17.886Z,5.98
2022-12-31T01:37:31.573Z,5.98
2022-12-31T01:37:44.185Z,6.00
2022-12-31T01:37:56.751Z,5.97
2022-12-31T01:38:09.631Z,5.99
2022-12-31T01:38:22.220Z,6.02
2022-12-31T01:38:35.723Z,6.00
2022-12-31T01:38:48.635Z,6.01
2022-12-31T01:39:03.892Z,5.99
2022-12-31T01:39:16.570Z,6.02
2022-12-31T01:39:29.201Z,6.02
2022-12-31T01:39:41.783Z,6.03
2022-12-31T01:39:54.364Z,6.02
2022-12-31T01:40:08.736Z,6.01
2022-12-31T01:40:21.383Z,6.00
2022-12-31T01:40:37.230Z,6.02
2022-12-31T01:40:49.804Z,6.03
2022-12-31T01:41:03.240Z,6.05
2022-12-31T01:41:18.364Z,6.05
2022-12-31T01:41:33.321Z,6.08
2022-12-31T01:41:48.345Z,6.03
2022-12-31T01:42:00.911Z,6.07
2022-12-31T01:42:14.883Z,6.07
2022-12-31T01:42:27.796Z,6.07
2022-12-31T01:42:40.419Z,6.06
2022-12-31T01:42:56.452Z,6.07
2022-12-31T01:43:15.844Z,6.05
2022-12-31T01:43:44.023Z,6.06
2022-12-31T01:44:00.151Z,6.07
2022-12-31T01:44:51.140Z,6.10
2022-12-31T01:45:04.264Z,6.08
2022-12-31T01:45:16.898Z,6.08
2022-12-31T01:45:30.669Z,6.11
2022-12-31T01:45:45.408Z,6.08
2022-12-31T01:45:58.143Z,6.09
2022-12-31T01:46:12.752Z,6.10
2022-12-31T01:46:30.155Z,6.09
2022-12-31T01:46:48.353Z,6.08
2022-12-31T01:47:02.952Z,6.07
2022-12-31T01:47:20.365Z,6.06
2022-12-31T01:47:37.950Z,6.09
2022-12-31T01:47:53.712Z,6.06
2022-12-31T01:48:13.279Z,6.09
2022-12-31T01:48:28.463Z,6.08
2022-12-31T01:48:41.212Z,6.08
2022-12-31T01:48:57.825Z,6.05
2022-12-31T01:49:16.849Z,6.08
2022-12-31T01:49:37.610Z,6.07
2022-12-31T01:49:54.745Z,6.07
2022-12-31T01:50:12.160Z,6.08
2022-12-31T01:50:30.410Z,6.09
2022-12-31T01:50:43.430Z,6.10
2022-12-31T01:50:57.003Z,6.09
2022-12-31T01:51:10.478Z,6.08
2022-12-31T01:51:24.744Z,6.09
2022-12-31T01:51:38.272Z,6.09
2022-12-31T01:51:54.350Z,6.09
2022-12-31T01:52:11.756Z,6.10
2022-12-31T01:52:30.829Z,6.10
2022-12-31T01:52:48.307Z,6.11
2022-12-31T01:53:03.817Z,6.08
2022-12-31T01:53:18.242Z,6.09
2022-12-31T01:53:31.425Z,6.09
2022-12-31T01:53:44.339Z,6.11
2022-12-31T01:53:58.400Z,6.09
2022-12-31T01:54:15.784Z,6.11
2022-12-31T01:54:32.287Z,6.09
2022-12-31T01:54:48.833Z,6.10
2022-12-31T01:55:08.318Z,6.09
2022-12-31T01:55:25.621Z,6.11
2022-12-31T01:55:43.804Z,6.10
2022-12-31T01:56:00.172Z,6.09
2022-12-31T01:56:13.230Z,6.11
2022-12-31T01:56:26.393Z,6.11
2022-12-31T01:56:43.150Z,6.13
2022-12-31T01:56:56.947Z,6.11
2022-12-31T01:57:11.231Z,6.11
2022-12-31T01:57:27.783Z,6.13
2022-12-31T01:57:41.327Z,6.15
2022-12-31T01:57:57.161Z,6.13
2022-12-31T01:58:14.206Z,6.14
2022-12-31T01:58:30.363Z,6.15
2022-12-31T01:58:46.142Z,6.13
2022-12-31T01:59:00.584Z,6.15
2022-12-31T01:59:16.633Z,6.18
2022-12-31T01:59:30.381Z,6.20
2022-12-31T01:59:45.061Z,6.17
2022-12-31T01:59:58.979Z,6.19
2022-12-31T02:00:12.356Z,6.17
2022-12-31T02:00:26.495Z,6.19
2022-12-31T02:00:39.204Z,6.19
2022-12-31T02:00:53.299Z,6.18
2022-12-31T02:01:08.552Z,6.18
2022-12-31T02:01:25.829Z,6.18
2022-12-31T02:01:40.044Z,6.18
2022-12-31T02:01:53.044Z,6.16
2022-12-31T02:02:06.110Z,6.19
2022-12-31T02:02:19.002Z,6.18
2022-12-31T02:02:31.933Z,6.17
2022-12-31T02:02:44.705Z,6.17
2022-12-31T02:02:57.480Z,6.17
2022-12-31T02:03:10.676Z,6.18
2022-12-31T02:03:27.206Z,6.18
2022-12-31T02:03:40.437Z,6.17
2022-12-31T02:03:54.018Z,6.18
2022-12-31T02:04:09.800Z,6.17
2022-12-31T02:04:25.160Z,6.16
2022-12-31T02:04:37.858Z,6.17
2022-12-31T02:04:54.622Z,6.18
2022-12-31T02:05:18.275Z,6.18
2022-12-31T02:05:36.640Z,6.19
2022-12-31T02:05:55.169Z,6.21
2022-12-31T02:06:14.969Z,6.19
2022-12-31T02:06:32.579Z,6.19
2022-12-31T02:06:49.726Z,6.19
2022-12-31T02:07:05.770Z,6.19
2022-12-31T02:07:18.458Z,6.18
2022-12-31T02:07:31.328Z,6.19
2022-12-31T02:07:44.712Z,6.20
2022-12-31T02:07:57.796Z,6.18
2022-12-31T02:08:11.105Z,6.19
2022-12-31T02:08:23.845Z,6.19
2022-12-31T02:08:41.999Z,6.19
2022-12-31T02:08:57.291Z,6.20
2022-12-31T02:09:11.523Z,6.22
2022-12-31T02:09:24.186Z,6.20
2022-12-31T02:09:39.914Z,6.23
2022-12-31T02:09:53.846Z,6.23
2022-12-31T02:10:07.029Z,6.24
2022-12-31T02:10:19.892Z,6.22
2022-12-31T02:10:33.711Z,6.23
2022-12-31T02:10:46.342Z,6.21
2022-12-31T02:10:58.936Z,6.21
2022-12-31T02:11:36.438Z,6.23
2022-12-31T02:11:49.118Z,6.23
2022-12-31T02:12:02.840Z,6.24
2022-12-31T02:12:15.791Z,6.24
2022-12-31T02:12:29.789Z,6.23
2022-12-31T02:12:42.497Z,6.23
2022-12-31T02:12:55.267Z,6.24
2022-12-31T02:13:08.280Z,6.24
2022-12-31T02:13:21.082Z,6.24
2022-12-31T02:13:33.711Z,6.26
2022-12-31T02:13:47.335Z,6.22
2022-12-31T02:14:04.073Z,6.26
2022-12-31T02:14:21.068Z,6.25
2022-12-31T02:14:37.768Z,6.23
2022-12-31T02:14:53.327Z,6.24
2022-12-31T02:15:07.190Z,6.25
2022-12-31T02:15:28.442Z,6.26
2022-12-31T02:15:51.387Z,6.24
2022-12-31T02:16:14.834Z,6.25
2022-12-31T02:16:40.123Z,6.24
2022-12-31T02:17:01.158Z,6.24
2022-12-31T02:17:22.881Z,6.27
2022-12-31T02:17:44.667Z,6.27
2022-12-31T02:18:10.163Z,6.28
2022-12-31T02:18:31.930Z,6.28
2022-12-31T02:18:51.132Z,6.27
2022-12-31T02:19:24.752Z,6.27
2022-12-31T02:19:59.895Z,6.26
2022-12-31T02:20:40.595Z,6.28
2022-12-31T02:21:12.883Z,6.27
2022-12-31T02:21:45.134Z,6.31
2022-12-31T02:22:09.083Z,6.29
2022-12-31T02:22:33.852Z,6.29
2022-12-31T02:23:24.642Z,6.28
2022-12-31T02:24:17.876Z,6.32
2022-12-31T02:24:57.007Z,6.30
2022-12-31T02:25:24.646Z,6.31
2022-12-31T02:25:53.684Z,6.31
2022-12-31T02:26:31.214Z,6.32
2022-12-31T02:26:54.186Z,6.31
2022-12-31T02:27:11.804Z,6.32
2022-12-31T02:27:39.860Z,6.33
2022-12-31T02:28:03.258Z,6.34
2022-12-31T02:28:29.815Z,6.34
2022-12-31T02:29:04.869Z,6.33
2022-12-31T02:29:51.414Z,6.34
2022-12-31T02:30:14.134Z,6.36
2022-12-31T02:30:30.161Z,6.35
2022-12-31T02:30:50.448Z,6.35
2022-12-31T02:31:09.300Z,6.36
2022-12-31T02:31:26.841Z,6.38
2022-12-31T02:31:44.103Z,6.40
2022-12-31T02:32:01.727Z,6.39
2022-12-31T02:32:17.797Z,6.38
2022-12-31T02:32:39.168Z,6.37
2022-12-31T02:33:02.936Z,6.40
2022-12-31T02:33:23.849Z,6.39
2022-12-31T02:33:40.747Z,6.40
2022-12-31T02:33:58.430Z,6.39
2022-12-31T02:34:18.695Z,6.42
2022-12-31T02:34:35.376Z,6.40
2022-12-31T02:34:52.990Z,6.43
2022-12-31T02:35:10.995Z,6.43
2022-12-31T02:35:30.296Z,6.42
2022-12-31T02:35:48.945Z,6.43
2022-12-31T02:36:06.218Z,6.46
2022-12-31T02:36:22.182Z,6.46
2022-12-31T02:36:39.442Z,6.43
2022-12-31T02:36:55.206Z,6.46
2022-12-31T02:37:12.506Z,6.43
2022-12-31T02:37:29.106Z,6.46
2022-12-31T02:37:46.202Z,6.47
2022-12-31T02:38:05.368Z,6.45
2022-12-31T02:38:24.712Z,6.50
2022-12-31T02:38:41.922Z,6.51
2022-12-31T02:38:56.133Z,6.50
2022-12-31T02:39:10.807Z,6.50
2022-12-31T02:39:24.072Z,6.50
2022-12-31T02:39:38.500Z,6.50
2022-12-31T02:39:52.043Z,6.51
2022-12-31T02:40:08.121Z,6.53
2022-12-31T02:40:23.174Z,6.60
2022-12-31T02:40:38.396Z,6.61
2022-12-31T02:40:53.707Z,6.60
2022-12-31T02:41:06.310Z,6.60
2022-12-31T02:41:35.397Z,6.61
2022-12-31T02:41:51.111Z,6.63
2022-12-31T02:42:03.968Z,6.60
2022-12-31T02:42:16.615Z,6.61
2022-12-31T02:42:29.178Z,6.62
2022-12-31T02:42:41.964Z,6.60
2022-12-31T02:42:55.915Z,6.61
2022-12-31T02:43:08.577Z,6.63
2022-12-31T02:43:21.187Z,6.62
2022-12-31T02:43:34.052Z,6.63
2022-12-31T02:43:47.132Z,6.63
2022-12-31T02:43:59.739Z,6.62
2022-12-31T02:44:23.001Z,6.63
2022-12-31T02:44:37.349Z,6.63
2022-12-31T02:44:50.933Z,6.63
2022-12-31T02:45:03.918Z,6.61
2022-12-31T02:45:29.934Z,6.64
2022-12-31T02:45:47.240Z,6.63
2022-12-31T02:46:09.291Z,6.61
2022-12-31T02:46:31.140Z,6.63
2022-12-31T02:46:51.624Z,6.63
2022-12-31T02:47:19.652Z,6.64
2022-12-31T02:47:47.565Z,6.64
2022-12-31T02:48:14.886Z,6.65
2022-12-31T02:48:39.594Z,6.72
2022-12-31T02:48:58.605Z,6.71
2022-12-31T02:49:16.951Z,6.72
2022-12-31T02:49:39.189Z,6.70
2022-12-31T02:50:10.461Z,6.71
2022-12-31T02:50:36.150Z,6.71
2022-12-31T02:50:55.811Z,6.71
2022-12-31T02:51:26.633Z,6.75
2022-12-31T02:51:45.874Z,6.73
2022-12-31T02:52:05.750Z,6.75
2022-12-31T02:52:28.494Z,6.76
2022-12-31T02:52:50.759Z,6.77
2022-12-31T02:53:16.839Z,6.75
2022-12-31T02:53:48.782Z,6.76
2022-12-31T02:54:17.771Z,6.79
2022-12-31T02:54:40.923Z,6.78
2022-12-31T02:55:03.455Z,6.76
2022-12-31T02:55:23.124Z,6.77
2022-12-31T02:55:45.340Z,6.81
2022-12-31T02:56:04.113Z,6.79
2022-12-31T02:56:23.528Z,6.81
2022-12-31T02:56:41.547Z,6.83
2022-12-31T02:57:03.401Z,6.83
2022-12-31T02:57:24.882Z,6.82
2022-12-31T02:57:43.532Z,6.86
2022-12-31T02:58:05.284Z,6.86
2022-12-31T02:58:47.949Z,6.86
2022-12-31T02:59:25.112Z,6.86
2022-12-31T03:00:00.849Z,6.87
2022-12-31T03:00:35.126Z,6.86
2022-12-31T03:01:15.222Z,6.89
2022-12-31T03:01:52.138Z,6.89
2022-12-31T03:02:16.416Z,6.89
2022-12-31T03:02:34.894Z,6.89
2022-12-31T03:02:50.121Z,6.88
2022-12-31T03:03:04.346Z,6.87
2022-12-31T03:03:19.256Z,6.88
2022-12-31T03:03:33.049Z,6.91
2022-12-31T03:03:45.731Z,6.95
2022-12-31T03:04:22.924Z,6.94
2022-12-31T03:04:37.331Z,6.95
2022-12-31T03:04:52.606Z,6.92
2022-12-31T03:05:06.154Z,6.93
2022-12-31T03:05:22.863Z,6.91
2022-12-31T03:05:41.464Z,6.93
2022-12-31T03:05:55.699Z,6.95
2022-12-31T03:06:10.178Z,6.94
2022-12-31T03:06:23.013Z,6.95
2022-12-31T03:06:35.851Z,6.97
2022-12-31T03:06:49.184Z,6.97
2022-12-31T03:07:03.696Z,6.96
2022-12-31T03:07:22.111Z,6.95
2022-12-31T03:07:35.008Z,6.96
2022-12-31T03:07:48.034Z,6.98
2022-12-31T03:08:01.047Z,6.98
2022-12-31T03:08:21.439Z,6.99
2022-12-31T03:08:55.181Z,6.98
2022-12-31T03:09:13.654Z,7.01
2022-12-31T03:09:26.226Z,7.00
2022-12-31T03:09:39.328Z,7.01
2022-12-31T03:09:52.347Z,7.00
2022-12-31T03:10:06.728Z,7.00
2022-12-31T03:10:19.500Z,6.99
2022-12-31T03:10:32.087Z,7.00
2022-12-31T03:10:44.659Z,7.01
2022-12-31T03:10:57.282Z,7.01
2022-12-31T03:11:30.458Z,7.02
2022-12-31T03:12:01.695Z,7.05
2022-12-31T03:12:42.662Z,7.06
2022-12-31T03:12:55.623Z,7.12
2022-12-31T03:13:08.330Z,7.12
2022-12-31T03:13:21.927Z,7.12
2022-12-31T03:13:34.516Z,7.14
2022-12-31T03:13:47.092Z,7.11
2022-12-31T03:13:59.684Z,7.12
2022-12-31T03:14:12.392Z,7.20
2022-12-31T03:14:25.143Z,7.18
2022-12-31T03:14:37.738Z,7.18
2022-12-31T03:14:50.769Z,7.17
2022-12-31T03:15:06.822Z,7.16
2022-12-31T03:15:21.768Z,7.25
2022-12-31T03:15:34.897Z,7.24
2022-12-31T03:15:48.887Z,7.24
2022-12-31T03:16:01.568Z,7.21
2022-12-31T03:16:14.207Z,7.22
2022-12-31T03:16:26.885Z,7.21
2022-12-31T03:16:39.550Z,7.22
2022-12-31T03:16:53.136Z,7.22
2022-12-31T03:17:05.796Z,7.21
2022-12-31T03:17:18.432Z,7.30
2022-12-31T03:17:31.312Z,7.36
2022-12-31T03:17:43.931Z,7.32
2022-12-31T03:18:00.745Z,7.33
2022-12-31T03:18:15.295Z,7.31
2022-12-31T03:18:56.021Z,7.32
2022-12-31T03:19:35.656Z,7.29
2022-12-31T03:20:06.871Z,7.33
2022-12-31T03:20:39.082Z,7.38
2022-12-31T03:21:10.596Z,7.37
2022-12-31T03:21:41.520Z,7.35
2022-12-31T03:22:12.579Z,7.35
2022-12-31T03:22:28.795Z,7.33
2022-12-31T03:22:43.385Z,7.34
2022-12-31T03:22:55.990Z,7.34
2022-12-31T03:23:12.589Z,7.34
2022-12-31T03:23:27.541Z,7.35
2022-12-31T03:23:43.106Z,7.34
2022-12-31T03:24:13.921Z,7.39
2022-12-31T03:24:44.721Z,7.41
2022-12-31T03:25:19.499Z,7.45
2022-12-31T03:25:35.196Z,7.42
2022-12-31T03:25:48.153Z,7.40
2022-12-31T03:26:01.749Z,7.40
2022-12-31T03:26:14.343Z,7.38
2022-12-31T03:26:26.908Z,7.38
2022-12-31T03:26:39.800Z,7.38
2022-12-31T03:26:52.375Z,7.38
2022-12-31T03:27:04.953Z,7.39
2022-12-31T03:27:17.511Z,7.38
2022-12-31T03:27:30.121Z,7.37
2022-12-31T03:27:44.015Z,7.37
2022-12-31T03:27:56.764Z,7.36
2022-12-31T03:28:11.637Z,7.38
2022-12-31T03:28:26.469Z,7.41
2022-12-31T03:28:41.049Z,7.41
2022-12-31T03:28:54.614Z,7.41